createdAt,value
2018-08-24T00:00:11.246Z,6.80
2018-08-24T00:02:39.598Z,4.50
2018-08-24T00:05:08.718Z,5.30
2018-08-24T00:07:37.092Z,4.80
2018-08-24T00:10:06.202Z,5.10
2018-08-24T00:12:34.571Z,5.43
2018-08-24T00:15:02.950Z,5.93
2018-08-24T00:17:31.966Z,5.77
2018-08-24T00:20:01.443Z,6.23
2018-08-24T00:22:30.335Z,6.30
2018-08-24T00:24:59.225Z,4.43
2018-08-24T00:27:28.015Z,4.80
2018-08-24T00:29:58.145Z,4.87
2018-08-24T00:32:26.850Z,4.10
2018-08-24T00:34:55.277Z,4.27
2018-08-24T00:37:23.802Z,4.90
2018-08-24T00:39:52.586Z,3.90
2018-08-24T00:42:20.938Z,6.63
2018-08-24T00:44:49.511Z,4.90
2018-08-24T00:47:18.223Z,3.40
2018-08-24T00:49:47.102Z,3.43
2018-08-24T00:52:15.479Z,4.37
2018-08-24T00:54:44.068Z,3.27
2018-08-24T00:57:13.015Z,4.23
2018-08-24T00:59:41.394Z,2.97
2018-08-24T01:02:10.330Z,3.53
2018-08-24T01:04:39.246Z,4.83
2018-08-24T01:07:10.870Z,3.90
2018-08-24T01:09:39.862Z,3.40
2018-08-24T01:12:11.571Z,4.30
2018-08-24T01:14:41.759Z,4.20
2018-08-24T01:17:15.615Z,4.30
2018-08-24T01:19:44.655Z,3.47
2018-08-24T01:22:13.467Z,3.83
2018-08-24T01:24:41.894Z,4.23
2018-08-24T01:27:11.726Z,3.87
2018-08-24T01:29:42.206Z,3.97
2018-08-24T01:32:11.379Z,4.30
2018-08-24T01:34:40.074Z,4.53
2018-08-24T01:37:08.443Z,4.93
2018-08-24T01:39:37.327Z,5.27
2018-08-24T01:42:06.318Z,4.50
2018-08-24T01:44:34.942Z,4.70
2018-08-24T01:47:03.326Z,3.60
2018-08-24T01:49:31.942Z,4.80
2018-08-24T01:52:00.322Z,4.60
2018-08-24T01:54:28.695Z,4.20
2018-08-24T01:56:57.390Z,5.33
2018-08-24T01:59:26.106Z,3.93
2018-08-24T02:01:54.791Z,4.20
2018-08-24T02:04:23.150Z,3.33
2018-08-24T02:06:51.569Z,4.33
2018-08-24T02:09:23.730Z,4.80
2018-08-24T02:11:52.517Z,4.13
2018-08-24T02:14:27.948Z,2.93
2018-08-24T02:16:57.670Z,4.60
2018-08-24T02:19:31.330Z,3.73
2018-08-24T02:22:05.310Z,3.73
2018-08-24T02:24:33.678Z,5.03
2018-08-24T02:27:02.035Z,5.47
2018-08-24T02:29:30.738Z,4.53
2018-08-24T02:31:59.394Z,4.10
2018-08-24T02:34:27.771Z,3.53
2018-08-24T02:36:56.471Z,3.97
2018-08-24T02:39:25.522Z,3.80
2018-08-24T02:41:53.867Z,4.40
2018-08-24T02:44:22.270Z,4.43
2018-08-24T02:46:50.658Z,3.70
2018-08-24T02:49:19.556Z,3.73
2018-08-24T02:51:47.906Z,3.40
2018-08-24T02:54:16.488Z,3.47
2018-08-24T02:56:44.883Z,4.40
2018-08-24T02:59:14.282Z,3.70
2018-08-24T03:01:42.719Z,4.13
2018-08-24T03:04:11.102Z,3.83
2018-08-24T03:06:39.732Z,4.10
2018-08-24T03:09:09.707Z,4.10
2018-08-24T03:11:38.578Z,3.47
2018-08-24T03:14:07.261Z,3.63
2018-08-24T03:16:36.412Z,4.53
2018-08-24T03:19:05.303Z,4.20
2018-08-24T03:21:33.987Z,4.70
2018-08-24T03:24:02.570Z,3.90
2018-08-24T03:26:31.247Z,3.60
2018-08-24T03:28:59.842Z,2.80
2018-08-24T03:31:28.547Z,4.63
2018-08-24T03:33:57.471Z,4.30
2018-08-24T03:36:26.718Z,3.37
2018-08-24T03:38:55.090Z,4.40
2018-08-24T03:41:24.699Z,4.43
2018-08-24T03:43:53.175Z,4.00
2018-08-24T03:46:21.535Z,4.20
2018-08-24T03:48:50.463Z,3.03
2018-08-24T03:51:19.160Z,4.67
2018-08-24T03:53:48.126Z,3.97
2018-08-24T03:56:16.489Z,4.70
2018-08-24T03:58:45.047Z,4.13
2018-08-24T04:01:13.503Z,4.43
2018-08-24T04:03:41.902Z,4.37
2018-08-24T04:06:10.882Z,3.27
2018-08-24T04:08:39.830Z,5.07
2018-08-24T04:11:09.599Z,4.53
2018-08-24T04:13:38.250Z,5.07
2018-08-24T04:16:06.619Z,4.13
2018-08-24T04:18:35.792Z,4.10
2018-08-24T04:21:04.218Z,4.60
2018-08-24T04:23:32.762Z,3.67
2018-08-24T04:26:01.587Z,5.10
2018-08-24T04:28:30.546Z,4.80
2018-08-24T04:30:58.922Z,3.73
2018-08-24T04:33:27.426Z,3.70
2018-08-24T04:35:55.791Z,4.27
2018-08-24T04:38:24.183Z,4.10
2018-08-24T04:40:53.255Z,3.87
2018-08-24T04:43:22.286Z,3.93
2018-08-24T04:45:51.294Z,4.50
2018-08-24T04:48:19.686Z,4.17
2018-08-24T04:50:48.242Z,3.37
2018-08-24T04:53:17.295Z,4.20
2018-08-24T04:55:45.654Z,3.33
2018-08-24T04:58:15.099Z,3.43
2018-08-24T05:00:43.783Z,5.10
2018-08-24T05:03:12.451Z,4.53
2018-08-24T05:05:41.164Z,4.90
2018-08-24T05:08:09.757Z,4.43
2018-08-24T05:10:38.147Z,3.30
2018-08-24T05:13:06.823Z,4.30
2018-08-24T05:15:35.169Z,5.43
2018-08-24T05:18:03.851Z,3.77
2018-08-24T05:20:32.518Z,4.67
2018-08-24T05:23:01.371Z,4.40
2018-08-24T05:25:29.811Z,3.90
2018-08-24T05:27:58.409Z,4.07
2018-08-24T05:30:26.775Z,3.83
2018-08-24T05:32:55.471Z,5.03
2018-08-24T05:35:24.155Z,5.20
2018-08-24T05:37:52.550Z,3.50
2018-08-24T05:40:21.262Z,4.37
2018-08-24T05:42:49.611Z,4.40
2018-08-24T05:45:18.482Z,4.43
2018-08-24T05:47:47.147Z,4.73
2018-08-24T05:50:15.831Z,4.03
2018-08-24T05:52:44.469Z,5.27
2018-08-24T05:55:13.126Z,3.83
2018-08-24T05:57:41.886Z,4.10
2018-08-24T06:00:11.192Z,3.30
2018-08-24T06:02:40.080Z,3.87
2018-08-24T06:05:09.275Z,3.60
2018-08-24T06:07:37.927Z,5.00
2018-08-24T06:10:06.656Z,4.30
2018-08-24T06:12:35.358Z,4.77
2018-08-24T06:15:04.330Z,3.83
2018-08-24T06:17:38.434Z,3.97
2018-08-24T06:20:07.628Z,3.63
2018-08-24T06:22:36.219Z,3.80
2018-08-24T06:25:04.646Z,3.70
2018-08-24T06:27:32.999Z,3.80
2018-08-24T06:30:01.366Z,4.90
2018-08-24T06:32:29.753Z,2.57
2018-08-24T06:34:58.438Z,3.60
2018-08-24T06:37:26.787Z,3.37
2018-08-24T06:39:55.483Z,3.53
2018-08-24T06:42:23.936Z,2.80
2018-08-24T06:44:52.334Z,3.30
2018-08-24T06:47:21.513Z,3.37
2018-08-24T06:49:50.658Z,3.27
2018-08-24T06:52:19.324Z,2.90
2018-08-24T06:54:48.394Z,4.40
2018-08-24T06:57:17.010Z,3.20
2018-08-24T06:59:45.557Z,3.90
2018-08-24T07:02:14.395Z,3.40
2018-08-24T07:04:43.012Z,4.00
2018-08-24T07:07:11.654Z,3.60
2018-08-24T07:09:40.230Z,3.50
2018-08-24T07:12:10.659Z,3.80
2018-08-24T07:14:39.638Z,2.83
2018-08-24T07:17:08.030Z,3.13
2018-08-24T07:19:36.440Z,2.90
2018-08-24T07:22:06.652Z,3.03
2018-08-24T07:24:35.007Z,3.37
2018-08-24T07:27:03.776Z,2.70
2018-08-24T07:29:32.134Z,3.13
2018-08-24T07:32:00.882Z,3.00
2018-08-24T07:34:29.233Z,3.63
2018-08-24T07:36:57.903Z,2.73
2018-08-24T07:39:27.062Z,2.63
2018-08-24T07:41:55.761Z,3.97
2018-08-24T07:44:24.083Z,3.00
2018-08-24T07:46:53.022Z,3.13
2018-08-24T07:49:21.706Z,2.17
2018-08-24T07:51:50.354Z,3.23
2018-08-24T07:54:18.774Z,2.33
2018-08-24T07:56:48.011Z,2.20
2018-08-24T07:59:16.366Z,2.33
2018-08-24T08:01:44.719Z,3.40
2018-08-24T08:04:13.462Z,2.20
2018-08-24T08:06:42.107Z,2.30
2018-08-24T08:09:10.508Z,2.67
2018-08-24T08:11:38.892Z,1.93
2018-08-24T08:14:07.682Z,1.93
2018-08-24T08:16:36.591Z,1.97
2018-08-24T08:19:05.030Z,2.40
2018-08-24T08:21:33.424Z,2.47
2018-08-24T08:24:01.808Z,1.87
2018-08-24T08:26:30.187Z,1.73
2018-08-24T08:28:58.570Z,1.73
2018-08-24T08:31:27.135Z,1.83
2018-08-24T08:33:55.520Z,1.47
2018-08-24T08:36:23.898Z,1.57
2018-08-24T08:38:52.617Z,1.53
2018-08-24T08:41:21.323Z,1.33
2018-08-24T08:43:49.967Z,1.40
2018-08-24T08:46:18.332Z,1.63
2018-08-24T08:48:47.335Z,1.30
2018-08-24T08:51:16.003Z,1.00
2018-08-24T08:53:44.651Z,1.43
2018-08-24T08:56:13.054Z,2.00
2018-08-24T08:58:41.418Z,1.00
2018-08-24T09:01:10.042Z,1.20
2018-08-24T09:03:38.958Z,1.13
2018-08-24T09:06:07.442Z,1.13
2018-08-24T09:08:36.323Z,1.27
2018-08-24T09:11:05.104Z,1.33
2018-08-24T09:13:33.483Z,1.00
2018-08-24T09:16:01.939Z,1.60
2018-08-24T09:18:35.946Z,1.50
2018-08-24T09:21:09.752Z,1.10
2018-08-24T09:23:43.404Z,1.00
2018-08-24T09:27:17.088Z,1.17
2018-08-24T09:29:45.886Z,1.40
2018-08-24T09:32:14.667Z,1.20
2018-08-24T09:34:43.343Z,1.90
2018-08-24T09:39:45.131Z,1.63
2018-08-24T09:42:13.510Z,1.10
2018-08-24T09:44:42.126Z,1.20
2018-08-24T09:47:15.654Z,0.90
2018-08-24T09:49:43.742Z,1.87
2018-08-24T09:52:17.951Z,1.17
2018-08-24T09:54:46.758Z,1.37
2018-08-24T09:57:15.399Z,1.37
2018-08-24T09:59:43.758Z,0.90
2018-08-24T10:02:17.935Z,1.50
2018-08-24T10:04:51.902Z,1.20
2018-08-24T10:07:28.362Z,2.53
2018-08-24T10:09:57.255Z,1.10
2018-08-24T10:12:25.894Z,1.13
2018-08-24T10:14:54.255Z,1.10
2018-08-24T10:17:26.682Z,1.60
2018-08-24T10:19:55.386Z,1.10
2018-08-24T10:22:23.722Z,1.00
2018-08-24T10:24:52.095Z,1.30
2018-08-24T10:27:20.771Z,1.10
2018-08-24T10:29:49.296Z,2.00
2018-08-24T10:32:17.586Z,1.40
2018-08-24T10:34:46.225Z,2.17
2018-08-24T10:37:14.563Z,2.17
2018-08-24T10:39:43.518Z,1.83
2018-08-24T10:44:43.635Z,1.53
2018-08-24T10:47:13.495Z,1.80
2018-08-24T10:49:42.628Z,1.10
2018-08-24T10:52:13.147Z,2.03
2018-08-24T10:54:43.129Z,1.63
2018-08-24T10:57:12.695Z,1.43
2018-08-24T10:59:41.088Z,1.57
2018-08-24T11:02:11.238Z,1.27
2018-08-24T11:04:41.528Z,1.47
2018-08-24T11:07:09.975Z,1.57
2018-08-24T11:09:38.870Z,1.50
2018-08-24T11:12:07.474Z,1.40
2018-08-24T11:14:36.362Z,2.10
2018-08-24T11:17:04.734Z,2.30
2018-08-24T11:19:33.178Z,1.80
2018-08-24T11:22:02.003Z,1.70
2018-08-24T11:24:37.314Z,2.10
2018-08-24T11:27:05.731Z,1.40
2018-08-24T11:29:34.102Z,1.20
2018-08-24T11:32:02.963Z,2.20
2018-08-24T11:34:31.278Z,2.20
2018-08-24T11:36:59.942Z,2.00
2018-08-24T11:39:28.634Z,2.30
2018-08-24T11:41:57.018Z,2.60
2018-08-24T11:44:25.602Z,1.70
2018-08-24T11:46:53.958Z,2.87
2018-08-24T11:49:22.033Z,2.63
2018-08-24T11:51:50.714Z,2.37
2018-08-24T11:54:18.846Z,2.60
2018-08-24T11:56:47.534Z,2.77
2018-08-24T11:59:15.909Z,2.63
2018-08-24T12:01:44.539Z,3.27
2018-08-24T12:04:13.207Z,3.13
2018-08-24T12:06:41.698Z,2.67
2018-08-24T12:09:10.710Z,2.70
2018-08-24T12:11:39.071Z,3.00
2018-08-24T12:14:07.730Z,2.47
2018-08-24T12:16:36.367Z,2.50
2018-08-24T12:19:05.008Z,2.50
2018-08-24T12:21:33.423Z,2.43
2018-08-24T12:24:02.179Z,3.10
2018-08-24T12:26:30.603Z,2.97
2018-08-24T12:28:59.535Z,2.80
2018-08-24T12:31:28.290Z,2.83
2018-08-24T12:33:57.266Z,3.00
2018-08-24T12:36:26.159Z,3.13
2018-08-24T12:38:54.747Z,3.70
2018-08-24T12:41:23.206Z,4.00
2018-08-24T12:43:51.492Z,3.37
2018-08-24T12:46:20.509Z,3.33
2018-08-24T12:48:48.743Z,3.20
2018-08-24T12:51:17.154Z,4.50
2018-08-24T12:53:46.093Z,4.40
2018-08-24T12:56:20.775Z,3.20
2018-08-24T12:58:50.627Z,3.67
2018-08-24T13:01:19.627Z,3.73
2018-08-24T13:03:48.227Z,3.80
2018-08-24T13:06:16.603Z,3.67
2018-08-24T13:08:45.346Z,3.33
2018-08-24T13:11:14.502Z,3.47
2018-08-24T13:13:43.170Z,3.40
2018-08-24T13:16:11.883Z,3.43
2018-08-24T13:18:41.037Z,3.07
2018-08-24T13:21:09.166Z,3.17
2018-08-24T13:23:37.228Z,3.60
2018-08-24T13:26:05.603Z,2.73
2018-08-24T13:28:34.683Z,3.20
2018-08-24T13:31:03.069Z,4.03
2018-08-24T13:33:32.643Z,3.97
2018-08-24T13:36:01.640Z,4.13
2018-08-24T13:38:30.495Z,4.57
2018-08-24T13:40:58.950Z,4.30
2018-08-24T13:43:27.338Z,5.03
2018-08-24T13:45:56.395Z,3.10
2018-08-24T13:48:24.771Z,4.17
2018-08-24T13:50:53.258Z,3.47
2018-08-24T13:53:21.871Z,4.70
2018-08-24T13:55:50.819Z,5.33
2018-08-24T13:58:19.706Z,4.33
2018-08-24T14:00:48.386Z,4.03
2018-08-24T14:03:16.759Z,4.27
2018-08-24T14:05:45.548Z,4.07
2018-08-24T14:08:13.919Z,4.43
2018-08-24T14:10:42.610Z,4.97
2018-08-24T14:13:11.344Z,3.80
2018-08-24T14:15:40.051Z,3.83
2018-08-24T14:18:08.706Z,4.63
2018-08-24T14:20:37.081Z,3.23
2018-08-24T14:23:06.002Z,3.97
2018-08-24T14:25:34.445Z,3.70
2018-08-24T14:28:03.303Z,5.37
2018-08-24T14:30:31.671Z,3.37
2018-08-24T14:33:00.383Z,4.13
2018-08-24T14:35:29.766Z,3.90
2018-08-24T14:37:58.514Z,4.17
2018-08-24T14:40:27.554Z,3.50
2018-08-24T14:42:56.246Z,3.93
2018-08-24T14:45:25.003Z,3.17
2018-08-24T14:47:53.386Z,4.23
2018-08-24T14:50:22.303Z,3.93
2018-08-24T14:52:50.718Z,3.40
2018-08-24T14:55:19.342Z,2.87
2018-08-24T14:57:48.262Z,3.53
2018-08-24T15:00:16.876Z,4.50
2018-08-24T15:02:45.257Z,2.70
2018-08-24T15:05:13.919Z,3.00
2018-08-24T15:07:43.238Z,3.57
2018-08-24T15:10:12.222Z,3.70
2018-08-24T15:12:41.330Z,3.70
2018-08-24T15:15:09.718Z,3.53
2018-08-24T15:17:38.098Z,3.20
2018-08-24T15:20:07.354Z,3.40
2018-08-24T15:22:35.775Z,3.30
2018-08-24T15:25:04.879Z,3.93
2018-08-24T15:27:33.432Z,2.73
2018-08-24T15:30:02.177Z,3.50
2018-08-24T15:32:30.673Z,3.80
2018-08-24T15:34:59.066Z,2.93
2018-08-24T15:37:28.172Z,2.80
2018-08-24T15:39:56.567Z,3.57
2018-08-24T15:42:25.162Z,2.17
2018-08-24T15:44:53.562Z,2.60
2018-08-24T15:47:21.982Z,3.50
2018-08-24T15:49:52.955Z,3.17
2018-08-24T15:52:21.319Z,3.57
2018-08-24T15:54:49.698Z,2.80
2018-08-24T15:57:18.310Z,3.00
2018-08-24T15:59:46.675Z,2.60
2018-08-24T16:02:15.241Z,3.00
2018-08-24T16:04:43.606Z,3.10
2018-08-24T16:07:13.411Z,2.70
2018-08-24T16:09:42.928Z,3.33
2018-08-24T16:12:11.395Z,2.73
2018-08-24T16:14:40.546Z,3.30
2018-08-24T16:17:09.183Z,2.80
2018-08-24T16:19:37.619Z,3.20
2018-08-24T16:22:06.092Z,2.80
2018-08-24T16:24:34.514Z,2.90
2018-08-24T16:27:03.183Z,2.47
2018-08-24T16:29:32.079Z,2.10
2018-08-24T16:32:00.467Z,3.10
2018-08-24T16:34:28.832Z,3.00
2018-08-24T16:36:57.692Z,2.50
2018-08-24T16:39:26.031Z,2.23
2018-08-24T16:41:55.190Z,2.60
2018-08-24T16:44:24.395Z,2.93
2018-08-24T16:46:53.248Z,2.67
2018-08-24T16:49:22.254Z,2.63
2018-08-24T16:51:50.863Z,3.20
2018-08-24T16:54:19.851Z,2.80
2018-08-24T16:56:48.558Z,2.50
2018-08-24T16:59:17.230Z,3.63
2018-08-24T17:01:45.595Z,3.00
2018-08-24T17:04:14.694Z,2.97
2018-08-24T17:06:43.042Z,3.10
2018-08-24T17:09:12.834Z,3.43
2018-08-24T17:11:41.730Z,3.00
2018-08-24T17:14:10.666Z,2.77
2018-08-24T17:16:40.311Z,3.47
2018-08-24T17:19:08.936Z,2.20
2018-08-24T17:21:37.621Z,2.20
2018-08-24T17:24:06.179Z,2.97
2018-08-24T17:26:34.281Z,3.10
2018-08-24T17:29:02.592Z,3.67
2018-08-24T17:31:31.106Z,3.17
2018-08-24T17:33:59.632Z,3.10
2018-08-24T17:36:28.263Z,2.70
2018-08-24T17:38:56.635Z,2.00
2018-08-24T17:41:25.022Z,3.60
2018-08-24T17:43:53.390Z,3.33
2018-08-24T17:46:22.402Z,2.87
2018-08-24T17:48:50.766Z,3.87
2018-08-24T17:51:21.974Z,2.93
2018-08-24T17:53:50.614Z,2.97
2018-08-24T17:56:18.974Z,2.50
2018-08-24T17:58:47.726Z,2.67
2018-08-24T18:01:16.599Z,2.57
2018-08-24T18:03:45.305Z,3.03
2018-08-24T18:06:14.280Z,3.97
2018-08-24T18:08:42.715Z,2.93
2018-08-24T18:11:11.103Z,2.90
2018-08-24T18:13:40.054Z,2.23
2018-08-24T18:16:08.690Z,3.07
2018-08-24T18:18:37.071Z,2.87
2018-08-24T18:21:06.095Z,2.00
2018-08-24T18:23:34.735Z,2.80
2018-08-24T18:26:03.691Z,2.90
2018-08-24T18:28:32.463Z,2.40
2018-08-24T18:31:00.889Z,3.53
2018-08-24T18:33:30.894Z,2.93
2018-08-24T18:35:59.279Z,2.80
2018-08-24T18:38:27.944Z,2.90
2018-08-24T18:40:56.307Z,3.37
2018-08-24T18:43:24.903Z,2.60
2018-08-24T18:45:53.575Z,3.53
2018-08-24T18:48:22.265Z,2.37
2018-08-24T18:50:50.748Z,2.30
2018-08-24T18:53:19.319Z,2.40
2018-08-24T18:55:47.699Z,2.87
2018-08-24T18:58:16.087Z,3.20
2018-08-24T19:00:44.458Z,3.60
2018-08-24T19:03:13.136Z,4.90
2018-08-24T19:05:41.498Z,4.07
2018-08-24T19:08:11.426Z,3.67
2018-08-24T19:10:45.046Z,2.10
2018-08-24T19:13:15.351Z,2.63
2018-08-24T19:15:44.640Z,3.60
2018-08-24T19:18:18.310Z,2.30
2018-08-24T19:20:52.541Z,3.50
2018-08-24T19:23:21.254Z,4.20
2018-08-24T19:25:50.175Z,3.20
2018-08-24T19:28:24.023Z,3.33
2018-08-24T19:30:53.134Z,3.20
2018-08-24T19:33:21.514Z,2.40
2018-08-24T19:35:49.891Z,2.87
2018-08-24T19:38:18.594Z,2.93
2018-08-24T19:40:52.539Z,3.40
2018-08-24T19:43:21.631Z,3.40
2018-08-24T19:45:49.999Z,3.07
2018-08-24T19:48:23.931Z,2.80
2018-08-24T19:50:52.511Z,2.50
2018-08-24T19:53:21.000Z,2.20
2018-08-24T19:55:49.362Z,2.50
2018-08-24T19:58:23.170Z,3.40
2018-08-24T20:00:51.842Z,3.17
2018-08-24T20:03:20.162Z,2.43
2018-08-24T20:05:54.011Z,3.53
2018-08-24T20:08:27.802Z,2.57
2018-08-24T20:10:56.211Z,2.47
2018-08-24T20:13:24.906Z,3.00
2018-08-24T20:15:58.876Z,2.90
2018-08-24T20:18:27.527Z,2.30
2018-08-24T20:20:55.891Z,2.80
2018-08-24T20:23:25.182Z,2.80
2018-08-24T20:25:53.820Z,2.77
2018-08-24T20:28:22.529Z,3.00
2018-08-24T20:30:50.891Z,3.27
2018-08-24T20:33:19.571Z,2.20
2018-08-24T20:35:48.194Z,3.10
2018-08-24T20:38:16.584Z,3.40
2018-08-24T20:40:45.119Z,2.93
2018-08-24T20:43:13.756Z,2.60
2018-08-24T20:45:42.161Z,2.77
2018-08-24T20:48:10.599Z,3.03
2018-08-24T20:50:39.447Z,3.27
2018-08-24T20:53:08.147Z,2.50
2018-08-24T20:55:36.567Z,3.67
2018-08-24T20:58:04.972Z,2.43
2018-08-24T21:00:33.367Z,2.40
2018-08-24T21:03:02.067Z,3.57
2018-08-24T21:05:30.426Z,3.73
2018-08-24T21:07:59.118Z,2.00
2018-08-24T21:10:28.077Z,2.10
2018-08-24T21:12:56.419Z,2.97
2018-08-24T21:15:24.811Z,2.23
2018-08-24T21:17:53.762Z,3.03
2018-08-24T21:20:22.514Z,2.83
2018-08-24T21:22:50.866Z,2.77
2018-08-24T21:25:20.151Z,2.57
2018-08-24T21:27:49.114Z,2.93
2018-08-24T21:30:17.885Z,2.60
2018-08-24T21:32:46.410Z,1.57
2018-08-24T21:35:14.791Z,2.93
2018-08-24T21:37:43.163Z,2.83
2018-08-24T21:40:11.523Z,2.80
2018-08-24T21:42:40.424Z,2.93
2018-08-24T21:45:08.827Z,2.53
2018-08-24T21:47:37.206Z,2.93
2018-08-24T21:50:06.504Z,2.67
2018-08-24T21:52:34.886Z,3.20
2018-08-24T21:55:03.514Z,3.00
2018-08-24T21:57:32.323Z,3.10
2018-08-24T22:00:00.997Z,2.10
2018-08-24T22:02:29.359Z,2.80
2018-08-24T22:04:57.727Z,2.70
2018-08-24T22:07:26.211Z,2.10
2018-08-24T22:09:54.570Z,2.97
2018-08-24T22:12:22.922Z,2.60
2018-08-24T22:14:51.335Z,3.00
2018-08-24T22:17:19.754Z,2.50
2018-08-24T22:19:48.438Z,2.50
2018-08-24T22:22:17.106Z,2.93
2018-08-24T22:24:45.460Z,3.07
2018-08-24T22:27:14.134Z,2.53
2018-08-24T22:29:42.494Z,1.80
2018-08-24T22:32:11.382Z,2.53
2018-08-24T22:34:39.883Z,2.30
2018-08-24T22:37:08.304Z,2.23
2018-08-24T22:39:37.326Z,2.10
2018-08-24T22:42:06.430Z,1.97
2018-08-24T22:44:34.915Z,2.17
2018-08-24T22:47:03.687Z,3.00
2018-08-24T22:49:32.766Z,2.13
2018-08-24T22:52:01.163Z,2.13
2018-08-24T22:54:29.534Z,2.20
2018-08-24T22:56:58.926Z,2.50
2018-08-24T22:59:27.330Z,2.40
2018-08-24T23:01:56.030Z,1.80
2018-08-24T23:04:24.401Z,2.30
2018-08-24T23:06:52.810Z,1.90
2018-08-24T23:09:21.171Z,2.63
2018-08-24T23:11:49.894Z,1.97
2018-08-24T23:14:18.267Z,2.40
2018-08-24T23:16:46.630Z,2.70
2018-08-24T23:19:15.026Z,1.70
2018-08-24T23:21:43.731Z,2.53
2018-08-24T23:24:12.074Z,2.60
2018-08-24T23:26:40.714Z,1.93
2018-08-24T23:29:09.056Z,2.13
2018-08-24T23:31:37.662Z,1.87
2018-08-24T23:34:06.321Z,1.80
2018-08-24T23:36:34.683Z,2.27
2018-08-24T23:39:04.222Z,1.37
2018-08-24T23:41:32.826Z,1.60
2018-08-24T23:44:01.223Z,1.53
2018-08-24T23:46:29.620Z,1.43
2018-08-24T23:48:57.966Z,1.80
2018-08-24T23:51:26.519Z,2.43
2018-08-24T23:53:54.933Z,1.67
2018-08-24T23:56:23.235Z,2.47
2018-08-24T23:58:52.275Z,1.90
